Seven Springs, North Carolina
Current Conditions -  °F | °C
As of 10:58 PM on Tuesday 27 Jan 2015 (Local Time) from KGSB Reporting Station
Clear Clear  
Wind Chill: 32°   Ceiling: Unl
Heat Index: 32°   Visibility: 10mi
Dew Point: 27°   Wind: 2mph
Humidity: 83%   Direction: 310°NW
Pressure: 29.94"   Gusts: NA
Location:  35.23°N, 77.85°W
Report Text: KGSB 280358Z AUTO 31002KT 10SM CLR 00/M03 A2994 RMK AO2 SLPNO T00001026 $
Loading
Personal Weather Stations






























Interactive Weather Map New forecast layout! Learn more

10-Day Weather Forecast

Advertisements
Track Severe Weather on mobile